Dover, Missouri
Current Conditions -  °F | °C
As of 9:55 AM on Wednesday 26 Nov 2014 (Local Time) from KMHL Reporting Station
Broken Clouds Broken Clouds  
Wind Chill: 30°   Ceiling: 700
Heat Index: 36°   Visibility: 7mi
Dew Point: 36°   Wind: 7mph
Humidity: 100%   Direction: 220°SW
Pressure: 29.95"   Gusts: NA
Location:  39.19°N, 93.69°W
Report Text: KMHL 261555Z AUTO 22006KT 7SM BKN007 02/02 A2995 RMK AO2 P0001
Loading
Personal Weather Stations






























Interactive Weather Map New forecast layout! Learn more

10-Day Weather Forecast

Advertisements
Track Severe Weather on mobile